| time (UTC) | temp F | wind direction | speed MPH | gust MPH | rain 1hr in | rain 24hr in | rain mn in | humidity % | barometer mb |
| 20260508022315 | 43 | 5 | 0.0 | 0.0 | 0.00 | 0.00 | 0.00 | 81 | 1009.7 |
| 20260508021812 | 44 | 353 | 1.0 | 1.0 | 0.00 | 0.00 | 0.00 | 82 | 1010.0 |
| 20260508021308 | 44 | 357 | 0.0 | 0.0 | 0.00 | 0.00 | 0.00 | 81 | 1009.8 |
| 20260508020804 | 44 | 1 | 0.0 | 0.0 | 0.00 | 0.00 | 0.00 | 77 | 1009.8 |
| 20260508020302 | 44 | 7 | 0.0 | 0.0 | 0.00 | 0.00 | 0.00 | 80 | 1009.6 |
| 20260508015759 | 44 | 5 | 0.0 | 0.0 | 0.00 | 0.00 | 0.00 | 76 | 1009.8 |
| 20260508015256 | 44 | 6 | 0.0 | 0.0 | 0.00 | 0.00 | 0.00 | 76 | 1009.9 |
| 20260508014753 | 44 | 3 | 1.0 | 1.0 | 0.00 | 0.00 | 0.00 | 81 | 1009.8 |
| 20260508014250 | 44 | 359 | 0.0 | 0.0 | 0.00 | 0.00 | 0.00 | 81 | 1009.8 |
| 20260508013745 | 44 | 357 | 0.0 | 0.0 | 0.00 | 0.00 | 0.00 | 77 | 1009.8 |
| 20260508013242 | 44 | 2 | 0.0 | 1.0 | 0.00 | 0.00 | 0.00 | 76 | 1009.7 |
| 20260508012740 | 45 | 7 | 0.0 | 1.0 | 0.00 | 0.00 | 0.00 | 78 | 1009.7 |
| 20260508012237 | 45 | 1 | 0.0 | 0.0 | 0.00 | 0.00 | 0.00 | 75 | 1009.8 |
| 20260508011735 | 44 | 351 | 1.0 | 1.0 | 0.00 | 0.00 | 0.00 | 73 | 1009.7 |
| 20260508011232 | 44 | 7 | 0.0 | 1.0 | 0.00 | 0.00 | 0.00 | 78 | 1009.5 |
| 20260508010728 | 44 | 353 | 1.0 | 1.0 | 0.00 | 0.00 | 0.00 | 77 | 1009.6 |
| 20260508010227 | 44 | 0 | 1.0 | 1.0 | 0.00 | 0.00 | 0.00 | 74 | 1009.7 |
| 20260508005723 | 44 | 5 | 0.0 | 0.0 | 0.00 | 0.00 | 0.00 | 79 | 1009.3 |
| 20260508005220 | 44 | 358 | 0.0 | 0.0 | 0.00 | 0.00 | 0.00 | 79 | 1009.5 |
| 20260508004716 | 44 | 354 | 0.0 | 0.0 | 0.00 | 0.00 | 0.00 | 79 | 1009.3 |
| 20260508004212 | 45 | 354 | 0.0 | 1.0 | 0.00 | 0.00 | 0.00 | 80 | 1009.2 |
| 20260508003709 | 46 | 356 | 1.0 | 1.0 | 0.00 | 0.00 | 0.00 | 73 | 1009.3 |
| 20260508003207 | 47 | 0 | 0.0 | 0.0 | 0.00 | 0.00 | 0.00 | 73 | 1009.2 |
| 20260508002703 | 47 | 2 | 0.0 | 1.0 | 0.00 | 0.00 | 0.00 | 66 | 1009.2 |
| 20260508002201 | 47 | 3 | 0.0 | 0.0 | 0.00 | 0.00 | 0.00 | 66 | 1009.0 |
| 20260508001655 | 48 | 32 | 1.0 | 1.0 | 0.00 | 0.00 | 0.00 | 65 | 1009.3 |
| 20260508001152 | 48 | 10 | 1.0 | 2.0 | 0.00 | 0.00 | 0.00 | 65 | 1009.1 |
| 20260508000648 | 48 | 1 | 0.0 | 0.0 | 0.00 | 0.00 | 0.00 | 66 | 1009.3 |
| 20260508000145 | 48 | 8 | 0.0 | 1.0 | 0.00 | 0.00 | 0.00 | 70 | 1008.9 |
| 20260507235642 | 49 | 0 | 0.0 | 0.0 | 0.00 | 0.00 | 0.00 | 62 | 1009.0 |
| 20260507235139 | 49 | 353 | 0.0 | 0.0 | 0.00 | 0.00 | 0.00 | 64 | 1008.8 |
| 20260507234636 | 50 | 356 | 0.0 | 0.0 | 0.00 | 0.00 | 0.00 | 62 | 1009.0 |
| 20260507234132 | 50 | 357 | 0.0 | 0.0 | 0.00 | 0.00 | 0.00 | 59 | 1008.7 |
| 20260507233629 | 50 | 328 | 1.0 | 1.0 | 0.00 | 0.00 | 0.00 | 60 | 1008.9 |
| 20260507233128 | 50 | 325 | 1.0 | 1.0 | 0.00 | 0.00 | 0.00 | 61 | 1008.7 |
| 20260507232625 | 50 | 313 | 2.0 | 2.0 | 0.00 | 0.00 | 0.00 | 60 | 1008.6 |
| 20260507232121 | 51 | 348 | 0.0 | 0.0 | 0.00 | 0.00 | 0.00 | 57 | 1008.6 |
| 20260507231617 | 51 | 321 | 1.0 | 2.0 | 0.00 | 0.00 | 0.00 | 59 | 1008.6 |
| 20260507231115 | 51 | 313 | 3.0 | 5.0 | 0.00 | 0.00 | 0.00 | 57 | 1008.9 |
| 20260507230611 | 51 | 320 | 2.0 | 2.0 | 0.00 | 0.00 | 0.00 | 59 | 1008.8 |
| 20260507230108 | 51 | 341 | 1.0 | 1.0 | 0.00 | 0.00 | 0.00 | 58 | 1008.7 |
| 20260507225603 | 51 | 351 | 0.0 | 0.0 | 0.00 | 0.00 | 0.00 | 56 | 1008.8 |
| 20260507225100 | 51 | 324 | 1.0 | 2.0 | 0.00 | 0.00 | 0.00 | 56 | 1008.8 |
| 20260507224555 | 51 | 243 | 2.0 | 2.0 | 0.00 | 0.00 | 0.00 | 55 | 1008.4 |
| 20260507224052 | 51 | 33 | 1.0 | 1.0 | 0.00 | 0.00 | 0.00 | 55 | 1008.7 |
| 20260507223548 | 51 | 46 | 2.0 | 2.0 | 0.00 | 0.00 | 0.00 | 57 | 1008.6 |
| 20260507223045 | 51 | 304 | 1.0 | 1.0 | 0.00 | 0.00 | 0.00 | 58 | 1008.6 |
| 20260507222542 | 51 | 284 | 1.0 | 2.0 | 0.00 | 0.00 | 0.00 | 57 | 1008.5 |
| 20260507222039 | 50 | 352 | 0.0 | 0.0 | 0.00 | 0.00 | 0.00 | 59 | 1008.2 |
| 20260507221535 | 50 | 41 | 1.0 | 2.0 | 0.00 | 0.00 | 0.00 | 57 | 1008.5 |
| 20260507221032 | 50 | 17 | 0.0 | 1.0 | 0.00 | 0.00 | 0.00 | 59 | 1008.4 |
| 20260507220529 | 51 | 353 | 0.0 | 0.0 | 0.00 | 0.00 | 0.00 | 58 | 1008.2 |
| 20260507220027 | 51 | 0 | 0.0 | 1.0 | 0.00 | 0.00 | 0.00 | 55 | 1008.6 |
| 20260507215523 | 51 | 342 | 1.0 | 1.0 | 0.00 | 0.00 | 0.00 | 58 | 1008.7 |
| 20260507215021 | 51 | 359 | 0.0 | 0.0 | 0.00 | 0.00 | 0.00 | 57 | 1008.7 |
| 20260507214518 | 51 | 328 | 1.0 | 2.0 | 0.00 | 0.00 | 0.00 | 57 | 1008.9 |
| 20260507214014 | 51 | 303 | 3.0 | 3.0 | 0.00 | 0.00 | 0.00 | 56 | 1008.8 |
| 20260507213510 | 51 | 321 | 1.0 | 1.0 | 0.00 | 0.00 | 0.00 | 58 | 1009.1 |
| 20260507213007 | 51 | 308 | 2.0 | 2.0 | 0.00 | 0.00 | 0.00 | 54 | 1008.9 |
| 20260507212503 | 52 | 296 | 3.0 | 3.0 | 0.00 | 0.00 | 0.00 | 56 | 1008.7 |
| 20260507212000 | 53 | 279 | 1.0 | 1.0 | 0.00 | 0.00 | 0.00 | 52 | 1008.8 |
| 20260507211456 | 52 | 350 | 1.0 | 2.0 | 0.00 | 0.00 | 0.00 | 52 | 1008.8 |
| 20260507210953 | 51 | 285 | 1.0 | 2.0 | 0.00 | 0.00 | 0.00 | 55 | 1008.6 |
| 20260507210450 | 51 | 302 | 2.0 | 2.0 | 0.00 | 0.00 | 0.00 | 57 | 1008.8 |
| 20260507205947 | 51 | 352 | 0.0 | 1.0 | 0.00 | 0.00 | 0.00 | 55 | 1008.7 |
| 20260507205444 | 51 | 282 | 2.0 | 2.0 | 0.00 | 0.00 | 0.00 | 54 | 1008.9 |
| 20260507204940 | 52 | 234 | 5.0 | 7.0 | 0.00 | 0.00 | 0.00 | 52 | 1008.8 |
| 20260507204436 | 53 | 304 | 4.0 | 5.0 | 0.00 | 0.00 | 0.00 | 53 | 1008.8 |
| 20260507203934 | 53 | 206 | 4.0 | 6.0 | 0.00 | 0.00 | 0.00 | 51 | 1008.7 |
| 20260507203431 | 53 | 340 | 3.0 | 5.0 | 0.00 | 0.00 | 0.00 | 54 | 1008.7 |
| 20260507202928 | 53 | 324 | 2.0 | 3.0 | 0.00 | 0.00 | 0.00 | 54 | 1008.7 |
| 20260507202419 | 53 | 334 | 1.0 | 2.0 | 0.00 | 0.00 | 0.00 | 53 | 1008.8 |
| 20260507201914 | 53 | 333 | 3.0 | 3.0 | 0.00 | 0.00 | 0.00 | 52 | 1009.0 |
| 20260507201410 | 54 | 37 | 1.0 | 2.0 | 0.00 | 0.00 | 0.00 | 51 | 1008.8 |
| 20260507200907 | 55 | 229 | 3.0 | 3.0 | 0.00 | 0.00 | 0.00 | 49 | 1008.9 |
| 20260507200403 | 53 | 348 | 1.0 | 2.0 | 0.00 | 0.00 | 0.00 | 50 | 1009.0 |
| 20260507195859 | 53 | 357 | 1.0 | 2.0 | 0.00 | 0.00 | 0.00 | 54 | 1008.9 |
| 20260507195356 | 53 | 346 | 2.0 | 2.0 | 0.00 | 0.00 | 0.00 | 53 | 1008.7 |
| 20260507194853 | 53 | 288 | 3.0 | 3.0 | 0.00 | 0.00 | 0.00 | 52 | 1008.9 |
| 20260507194350 | 52 | 17 | 3.0 | 3.0 | 0.00 | 0.00 | 0.00 | 55 | 1009.0 |
| 20260507193846 | 52 | 313 | 2.0 | 2.0 | 0.00 | 0.00 | 0.00 | 55 | 1009.3 |
| 20260507193344 | 52 | 275 | 3.0 | 3.0 | 0.00 | 0.00 | 0.00 | 52 | 1008.8 |
| 20260507192839 | 53 | 264 | 7.0 | 8.0 | 0.00 | 0.00 | 0.00 | 53 | 1009.2 |
| 20260507192330 | 53 | 1 | 0.0 | 0.0 | 0.00 | 0.00 | 0.00 | 52 | 1009.1 |
| 20260507191827 | 52 | 293 | 6.0 | 9.0 | 0.00 | 0.00 | 0.00 | 53 | 1009.3 |
| 20260507191322 | 52 | 299 | 3.0 | 5.0 | 0.00 | 0.00 | 0.00 | 53 | 1009.1 |
| 20260507190820 | 53 | 265 | 4.0 | 5.0 | 0.00 | 0.00 | 0.00 | 54 | 1009.4 |
| 20260507190318 | 53 | 263 | 4.0 | 5.0 | 0.00 | 0.00 | 0.00 | 51 | 1009.3 |
| 20260507185817 | 52 | 278 | 3.0 | 3.0 | 0.00 | 0.00 | 0.00 | 51 | 1009.7 |
| 20260507185313 | 51 | 289 | 7.0 | 8.0 | 0.00 | 0.00 | 0.00 | 55 | 1009.5 |
| 20260507184810 | 51 | 313 | 1.0 | 1.0 | 0.00 | 0.00 | 0.00 | 55 | 1009.5 |
| 20260507184308 | 52 | 314 | 2.0 | 2.0 | 0.00 | 0.00 | 0.00 | 56 | 1009.5 |
| 20260507183805 | 51 | 305 | 2.0 | 2.0 | 0.00 | 0.00 | 0.00 | 56 | 1010.1 |
| 20260507183302 | 52 | 333 | 4.0 | 5.0 | 0.00 | 0.00 | 0.00 | 53 | 1009.7 |
| 20260507182759 | 54 | 321 | 4.0 | 6.0 | 0.00 | 0.00 | 0.00 | 52 | 1009.8 |
| 20260507182254 | 53 | 305 | 2.0 | 2.0 | 0.00 | 0.00 | 0.00 | 53 | 1009.6 |
| 20260507181751 | 52 | 271 | 3.0 | 5.0 | 0.00 | 0.00 | 0.00 | 55 | 1009.9 |
| 20260507181247 | 51 | 230 | 4.0 | 5.0 | 0.00 | 0.00 | 0.00 | 52 | 1009.9 |
| 20260507180744 | 51 | 257 | 3.0 | 5.0 | 0.00 | 0.00 | 0.00 | 53 | 1009.8 |
| 20260507180241 | 51 | 264 | 3.0 | 5.0 | 0.00 | 0.00 | 0.00 | 53 | 1009.8 |
| 20260507175736 | 51 | 238 | 2.0 | 2.0 | 0.00 | 0.00 | 0.00 | 55 | 1009.9 |
| 20260507175234 | 51 | 304 | 6.0 | 7.0 | 0.00 | 0.00 | 0.00 | 56 | 1010.1 |
| 20260507174731 | 52 | 107 | 4.0 | 6.0 | 0.00 | 0.00 | 0.00 | 55 | 1010.3 |
| 20260507174229 | 52 | 245 | 5.0 | 6.0 | 0.00 | 0.00 | 0.00 | 55 | 1010.1 |
| 20260507173727 | 51 | 273 | 4.0 | 7.0 | 0.00 | 0.00 | 0.00 | 54 | 1010.0 |
| 20260507173223 | 51 | 194 | 3.0 | 5.0 | 0.00 | 0.00 | 0.00 | 55 | 1010.1 |
| 20260507172720 | 52 | 232 | 6.0 | 8.0 | 0.00 | 0.00 | 0.00 | 54 | 1010.1 |
| 20260507172216 | 51 | 356 | 3.0 | 5.0 | 0.00 | 0.00 | 0.00 | 58 | 1010.1 |
| 20260507171711 | 51 | 308 | 2.0 | 3.0 | 0.00 | 0.00 | 0.00 | 55 | 1010.3 |
| 20260507171209 | 51 | 28 | 5.0 | 6.0 | 0.00 | 0.00 | 0.00 | 55 | 1010.4 |
| 20260507170705 | 53 | 246 | 4.0 | 5.0 | 0.00 | 0.00 | 0.00 | 51 | 1010.6 |
| 20260507170203 | 53 | 335 | 1.0 | 2.0 | 0.00 | 0.00 | 0.00 | 52 | 1010.2 |
| 20260507165658 | 52 | 287 | 3.0 | 3.0 | 0.00 | 0.00 | 0.00 | 54 | 1010.3 |
| 20260507165154 | 52 | 198 | 5.0 | 6.0 | 0.00 | 0.00 | 0.00 | 54 | 1010.4 |
| 20260507164650 | 52 | 242 | 5.0 | 6.0 | 0.00 | 0.00 | 0.00 | 54 | 1010.3 |
| 20260507164148 | 51 | 282 | 6.0 | 7.0 | 0.00 | 0.00 | 0.00 | 55 | 1010.3 |
| 20260507163644 | 51 | 289 | 3.0 | 5.0 | 0.00 | 0.00 | 0.00 | 54 | 1010.7 |
| 20260507163143 | 51 | 288 | 1.0 | 2.0 | 0.00 | 0.00 | 0.00 | 55 | 1010.6 |
| 20260507162638 | 50 | 271 | 5.0 | 7.0 | 0.00 | 0.00 | 0.00 | 55 | 1011.0 |
| 20260507162134 | 51 | 218 | 6.0 | 7.0 | 0.00 | 0.00 | 0.00 | 58 | 1010.8 |
| 20260507161631 | 49 | 292 | 5.0 | 7.0 | 0.00 | 0.00 | 0.00 | 57 | 1010.7 |
| 20260507161127 | 49 | 286 | 4.0 | 6.0 | 0.00 | 0.00 | 0.00 | 58 | 1011.1 |
| 20260507160624 | 50 | 232 | 1.0 | 2.0 | 0.00 | 0.00 | 0.00 | 56 | 1011.0 |
| 20260507160120 | 50 | 343 | 3.0 | 3.0 | 0.00 | 0.00 | 0.00 | 55 | 1010.9 |
| 20260507155615 | 51 | 286 | 6.0 | 7.0 | 0.00 | 0.00 | 0.00 | 55 | 1011.1 |
| 20260507155113 | 50 | 261 | 5.0 | 6.0 | 0.00 | 0.00 | 0.00 | 57 | 1011.2 |
| 20260507154609 | 50 | 243 | 3.0 | 5.0 | 0.00 | 0.00 | 0.00 | 56 | 1011.2 |
| 20260507154107 | 49 | 272 | 2.0 | 2.0 | 0.00 | 0.00 | 0.00 | 56 | 1011.2 |
| 20260507153603 | 48 | 358 | 2.0 | 2.0 | 0.00 | 0.00 | 0.00 | 57 | 1011.5 |
| 20260507153100 | 49 | 295 | 3.0 | 3.0 | 0.00 | 0.00 | 0.00 | 62 | 1011.5 |
| 20260507152556 | 49 | 276 | 6.0 | 7.0 | 0.00 | 0.00 | 0.00 | 59 | 1011.3 |
| 20260507152052 | 49 | 300 | 5.0 | 5.0 | 0.00 | 0.00 | 0.00 | 61 | 1011.5 |
| 20260507151548 | 50 | 9 | 5.0 | 7.0 | 0.00 | 0.00 | 0.00 | 57 | 1011.6 |
| 20260507151045 | 50 | 287 | 4.0 | 5.0 | 0.00 | 0.00 | 0.00 | 63 | 1011.5 |
| 20260507150543 | 49 | 301 | 4.0 | 5.0 | 0.00 | 0.00 | 0.00 | 62 | 1011.7 |
| 20260507150039 | 48 | 252 | 5.0 | 6.0 | 0.00 | 0.00 | 0.00 | 60 | 1011.7 |
| 20260507145534 | 48 | 279 | 3.0 | 3.0 | 0.00 | 0.00 | 0.00 | 64 | 1011.8 |
| 20260507145032 | 48 | 229 | 4.0 | 5.0 | 0.00 | 0.00 | 0.00 | 61 | 1011.7 |
| 20260507144528 | 47 | 233 | 4.0 | 5.0 | 0.00 | 0.00 | 0.00 | 63 | 1011.8 |
| 20260507144026 | 47 | 300 | 3.0 | 5.0 | 0.00 | 0.00 | 0.00 | 63 | 1011.8 |
| 20260507143523 | 49 | 275 | 2.0 | 2.0 | 0.00 | 0.00 | 0.00 | 61 | 1011.5 |
| 20260507143021 | 48 | 241 | 2.0 | 3.0 | 0.00 | 0.00 | 0.00 | 61 | 1011.5 |
| 20260507142515 | 48 | 297 | 4.0 | 5.0 | 0.00 | 0.00 | 0.00 | 65 | 1011.7 |
| 20260507142013 | 47 | 273 | 3.0 | 3.0 | 0.00 | 0.00 | 0.00 | 65 | 1011.9 |
| 20260507141509 | 47 | 301 | 4.0 | 5.0 | 0.00 | 0.00 | 0.00 | 66 | 1011.8 |
| 20260507141007 | 48 | 283 | 4.0 | 5.0 | 0.00 | 0.00 | 0.00 | 64 | 1011.7 |
| 20260507140503 | 48 | 351 | 2.0 | 2.0 | 0.00 | 0.00 | 0.00 | 67 | 1012.0 |
| 20260507140000 | 47 | 334 | 2.0 | 2.0 | 0.00 | 0.00 | 0.00 | 64 | 1011.8 |
| 20260507135456 | 48 | 334 | 3.0 | 3.0 | 0.00 | 0.00 | 0.00 | 63 | 1011.8 |
| 20260507134954 | 46 | 351 | 3.0 | 5.0 | 0.00 | 0.00 | 0.00 | 63 | 1011.8 |
| 20260507134450 | 46 | 43 | 5.0 | 6.0 | 0.00 | 0.00 | 0.00 | 65 | 1011.5 |
| 20260507133946 | 46 | 321 | 1.0 | 2.0 | 0.00 | 0.00 | 0.00 | 64 | 1011.9 |
| 20260507133442 | 47 | 276 | 4.0 | 6.0 | 0.00 | 0.00 | 0.00 | 68 | 1011.7 |
| 20260507132941 | 45 | 328 | 2.0 | 2.0 | 0.00 | 0.00 | 0.00 | 69 | 1011.9 |
| 20260507132437 | 45 | 294 | 3.0 | 3.0 | 0.00 | 0.00 | 0.00 | 71 | 1011.8 |
| 20260507131933 | 46 | 341 | 1.0 | 1.0 | 0.00 | 0.00 | 0.00 | 68 | 1011.8 |
| 20260507131431 | 45 | 126 | 1.0 | 2.0 | 0.00 | 0.00 | 0.00 | 69 | 1011.6 |
| 20260507130927 | 45 | 358 | 3.0 | 3.0 | 0.00 | 0.00 | 0.00 | 69 | 1012.0 |
| 20260507130425 | 44 | 11 | 1.0 | 2.0 | 0.00 | 0.00 | 0.00 | 70 | 1011.9 |
| 20260507125923 | 44 | 355 | 1.0 | 2.0 | 0.00 | 0.00 | 0.00 | 72 | 1012.0 |
| 20260507125421 | 44 | 310 | 3.0 | 5.0 | 0.00 | 0.00 | 0.00 | 72 | 1011.9 |
| 20260507124918 | 44 | 221 | 3.0 | 3.0 | 0.00 | 0.00 | 0.00 | 77 | 1011.8 |
| 20260507124414 | 44 | 225 | 2.0 | 2.0 | 0.00 | 0.00 | 0.00 | 76 | 1011.9 |
| 20260507123913 | 43 | 298 | 5.0 | 6.0 | 0.00 | 0.00 | 0.00 | 75 | 1011.7 |
| 20260507123410 | 43 | 50 | 3.0 | 3.0 | 0.00 | 0.00 | 0.00 | 78 | 1011.6 |
| 20260507122906 | 43 | 25 | 2.0 | 3.0 | 0.00 | 0.00 | 0.00 | 77 | 1011.7 |
| 20260507122401 | 43 | 351 | 2.0 | 3.0 | 0.00 | 0.00 | 0.00 | 80 | 1011.8 |
| 20260507121858 | 42 | 314 | 4.0 | 6.0 | 0.00 | 0.00 | 0.00 | 79 | 1011.5 |
| 20260507121353 | 42 | 327 | 2.0 | 3.0 | 0.00 | 0.00 | 0.00 | 80 | 1011.9 |
| 20260507120850 | 43 | 359 | 2.0 | 3.0 | 0.00 | 0.00 | 0.00 | 79 | 1011.9 |
| 20260507120346 | 42 | 321 | 2.0 | 2.0 | 0.00 | 0.00 | 0.00 | 77 | 1011.8 |
| 20260507115843 | 42 | 317 | 3.0 | 3.0 | 0.00 | 0.00 | 0.00 | 81 | 1011.5 |
| 20260507115338 | 41 | 313 | 2.0 | 2.0 | 0.00 | 0.00 | 0.00 | 80 | 1011.8 |
| 20260507114834 | 41 | 300 | 3.0 | 3.0 | 0.00 | 0.00 | 0.00 | 81 | 1011.7 |
| 20260507114332 | 41 | 309 | 2.0 | 2.0 | 0.00 | 0.00 | 0.00 | 83 | 1011.6 |
| 20260507113829 | 41 | 14 | 2.0 | 2.0 | 0.00 | 0.00 | 0.00 | 82 | 1011.7 |
| 20260507113326 | 40 | 311 | 2.0 | 3.0 | 0.00 | 0.00 | 0.00 | 80 | 1011.3 |
| 20260507112823 | 40 | 301 | 4.0 | 5.0 | 0.00 | 0.00 | 0.00 | 82 | 1011.2 |
| 20260507112320 | 40 | 9 | 1.0 | 1.0 | 0.00 | 0.00 | 0.00 | 83 | 1011.2 |
| 20260507111818 | 40 | 251 | 2.0 | 2.0 | 0.00 | 0.00 | 0.00 | 84 | 1011.2 |
| 20260507111314 | 40 | 358 | 0.0 | 0.0 | 0.00 | 0.00 | 0.00 | 87 | 1011.2 |
| 20260507110810 | 39 | 320 | 2.0 | 3.0 | 0.00 | 0.00 | 0.00 | 85 | 1011.2 |
| 20260507110307 | 39 | 317 | 1.0 | 2.0 | 0.00 | 0.00 | 0.00 | 86 | 1011.3 |
| 20260507105804 | 38 | 296 | 2.0 | 2.0 | 0.00 | 0.00 | 0.00 | 88 | 1011.3 |
| 20260507105300 | 38 | 325 | 2.0 | 2.0 | 0.00 | 0.00 | 0.00 | 90 | 1011.4 |
| 20260507104758 | 38 | 343 | 2.0 | 2.0 | 0.00 | 0.00 | 0.00 | 90 | 1011.1 |
| 20260507104254 | 37 | 327 | 2.0 | 2.0 | 0.00 | 0.00 | 0.00 | 92 | 1011.2 |
| 20260507103750 | 37 | 327 | 1.0 | 1.0 | 0.00 | 0.00 | 0.00 | 92 | 1011.2 |
| 20260507103246 | 37 | 336 | 1.0 | 2.0 | 0.00 | 0.00 | 0.00 | 95 | 1011.1 |
| 20260507102743 | 37 | 345 | 0.0 | 0.0 | 0.00 | 0.00 | 0.00 | 96 | 1010.9 |
| 20260507102240 | 37 | 344 | 1.0 | 1.0 | 0.00 | 0.00 | 0.00 | 96 | 1011.1 |
| 20260507101736 | 37 | 344 | 1.0 | 1.0 | 0.00 | 0.00 | 0.00 | 95 | 1011.1 |
| 20260507101231 | 37 | 327 | 1.0 | 1.0 | 0.00 | 0.00 | 0.00 | 96 | 1010.7 |
| 20260507100728 | 37 | 319 | 1.0 | 1.0 | 0.00 | 0.00 | 0.00 | 97 | 1011.1 |
| 20260507100227 | 37 | 350 | 0.0 | 0.0 | 0.00 | 0.00 | 0.00 | 97 | 1010.6 |
| 20260507095724 | 37 | 353 | 0.0 | 0.0 | 0.00 | 0.00 | 0.00 | 96 | 1010.9 |
| 20260507095220 | 37 | 262 | 3.0 | 5.0 | 0.00 | 0.00 | 0.00 | 96 | 1010.8 |
| 20260507094717 | 37 | 0 | 0.0 | 0.0 | 0.00 | 0.00 | 0.00 | 95 | 1010.7 |
| 20260507094215 | 38 | 353 | 0.0 | 0.0 | 0.00 | 0.00 | 0.00 | 94 | 1010.8 |
| 20260507093711 | 38 | 0 | 1.0 | 1.0 | 0.00 | 0.00 | 0.00 | 93 | 1010.8 |
| 20260507093210 | 39 | 31 | 2.0 | 3.0 | 0.00 | 0.00 | 0.00 | 92 | 1010.6 |
| 20260507092707 | 39 | 17 | 1.0 | 1.0 | 0.00 | 0.00 | 0.00 | 91 | 1010.8 |
| 20260507092203 | 39 | 358 | 0.0 | 1.0 | 0.00 | 0.00 | 0.00 | 89 | 1010.7 |
| 20260507091659 | 40 | 268 | 3.0 | 3.0 | 0.00 | 0.00 | 0.00 | 89 | 1010.7 |
| 20260507091156 | 40 | 304 | 3.0 | 3.0 | 0.00 | 0.00 | 0.00 | 89 | 1010.8 |
| 20260507090651 | 40 | 340 | 3.0 | 5.0 | 0.00 | 0.00 | 0.00 | 96 | 1010.8 |
| 20260507090149 | 41 | 309 | 2.0 | 3.0 | 0.00 | 0.00 | 0.00 | 97 | 1010.7 |
| 20260507085646 | 41 | 320 | 1.0 | 2.0 | 0.00 | 0.00 | 0.00 | 97 | 1010.6 |
| 20260507085143 | 41 | 320 | 2.0 | 2.0 | 0.00 | 0.00 | 0.00 | 96 | 1010.3 |
| 20260507084640 | 41 | 341 | 0.0 | 1.0 | 0.00 | 0.00 | 0.00 | 96 | 1010.4 |
| 20260507084136 | 41 | 318 | 2.0 | 3.0 | 0.00 | 0.00 | 0.00 | 96 | 1010.4 |
| 20260507083633 | 41 | 260 | 1.0 | 1.0 | 0.00 | 0.00 | 0.00 | 95 | 1010.6 |
| 20260507083130 | 42 | 32 | 2.0 | 2.0 | 0.00 | 0.00 | 0.00 | 95 | 1010.8 |
| 20260507082625 | 42 | 288 | 2.0 | 2.0 | 0.00 | 0.00 | 0.00 | 95 | 1010.7 |
| 20260507082122 | 42 | 305 | 2.0 | 3.0 | 0.00 | 0.00 | 0.00 | 96 | 1010.7 |
| 20260507081619 | 42 | 288 | 5.0 | 6.0 | 0.00 | 0.00 | 0.00 | 96 | 1010.6 |
| 20260507081115 | 42 | 348 | 1.0 | 1.0 | 0.00 | 0.00 | 0.00 | 96 | 1010.7 |
| 20260507080612 | 43 | 299 | 2.0 | 2.0 | 0.00 | 0.00 | 0.00 | 96 | 1010.6 |
| 20260507080108 | 43 | 310 | 4.0 | 6.0 | 0.00 | 0.00 | 0.00 | 96 | 1010.8 |
| 20260507075603 | 43 | 349 | 2.0 | 2.0 | 0.00 | 0.00 | 0.00 | 96 | 1010.8 |
| 20260507075100 | 43 | 312 | 1.0 | 2.0 | 0.00 | 0.00 | 0.00 | 97 | 1010.8 |
| 20260507074557 | 43 | 349 | 0.0 | 0.0 | 0.00 | 0.00 | 0.00 | 97 | 1010.7 |
| 20260507074055 | 43 | 1 | 1.0 | 1.0 | 0.00 | 0.00 | 0.00 | 97 | 1011.0 |
| 20260507073550 | 43 | 327 | 0.0 | 1.0 | 0.00 | 0.00 | 0.00 | 97 | 1011.0 |
| 20260507073047 | 43 | 324 | 1.0 | 1.0 | 0.00 | 0.00 | 0.00 | 97 | 1011.0 |
| 20260507072545 | 43 | 333 | 1.0 | 1.0 | 0.00 | 0.00 | 0.00 | 98 | 1011.0 |
| 20260507072042 | 43 | 343 | 1.0 | 1.0 | 0.00 | 0.00 | 0.00 | 98 | 1011.0 |
| 20260507071539 | 43 | 314 | 3.0 | 3.0 | 0.00 | 0.00 | 0.00 | 98 | 1010.9 |
| 20260507071036 | 43 | 320 | 3.0 | 3.0 | 0.00 | 0.00 | 0.00 | 99 | 1010.9 |
| 20260507070533 | 43 | 278 | 3.0 | 3.0 | 0.00 | 0.00 | 0.00 | 99 | 1011.2 |
| 20260507070030 | 43 | 1 | 1.0 | 1.0 | 0.00 | 0.00 | 0.00 | 99 | 1011.1 |
| 20260507065526 | 43 | 323 | 1.0 | 1.0 | 0.00 | 0.00 | 0.00 | 99 | 1010.9 |
| 20260507065023 | 43 | 351 | 3.0 | 5.0 | 0.00 | 0.00 | 0.00 | 99 | 1010.9 |
| 20260507064521 | 43 | 260 | 3.0 | 3.0 | 0.00 | 0.00 | 0.00 | 99 | 1010.8 |
| 20260507064020 | 42 | 351 | 0.0 | 0.0 | 0.00 | 0.00 | 0.00 | 99 | 1010.7 |
| 20260507063516 | 42 | 50 | 1.0 | 1.0 | 0.00 | 0.00 | 0.00 | 99 | 1010.6 |
| 20260507063014 | 42 | 14 | 1.0 | 1.0 | 0.00 | 0.00 | 0.00 | 99 | 1010.6 |
| 20260507062510 | 43 | 325 | 0.0 | 1.0 | 0.00 | 0.00 | 0.00 | 99 | 1010.2 |
| 20260507062008 | 43 | 42 | 1.0 | 1.0 | 0.00 | 0.00 | 0.00 | 99 | 1010.4 |
| 20260507061505 | 43 | 110 | 2.0 | 2.0 | 0.00 | 0.00 | 0.00 | 99 | 1010.3 |
| 20260507061004 | 42 | 0 | 0.0 | 0.0 | 0.00 | 0.00 | 0.00 | 99 | 1010.0 |
| 20260507060501 | 42 | 30 | 1.0 | 1.0 | 0.00 | 0.00 | 0.00 | 99 | 1010.1 |
| 20260507055957 | 42 | 26 | 1.0 | 2.0 | 0.00 | 0.00 | 0.00 | 99 | 1010.1 |
| 20260507055452 | 42 | 353 | 1.0 | 1.0 | 0.00 | 0.00 | 0.00 | 99 | 1009.9 |
| 20260507054949 | 42 | 357 | 0.0 | 1.0 | 0.00 | 0.00 | 0.00 | 99 | 1010.0 |
| 20260507054445 | 41 | 21 | 1.0 | 1.0 | 0.00 | 0.00 | 0.00 | 99 | 1010.4 |
| 20260507053942 | 41 | 17 | 0.0 | 1.0 | 0.00 | 0.00 | 0.00 | 99 | 1010.3 |
| 20260507053440 | 41 | 5 | 1.0 | 1.0 | 0.00 | 0.00 | 0.00 | 99 | 1010.0 |
| 20260507052938 | 41 | 2 | 0.0 | 0.0 | 0.00 | 0.00 | 0.00 | 99 | 1010.0 |
| 20260507052436 | 41 | 351 | 0.0 | 0.0 | 0.00 | 0.00 | 0.00 | 99 | 1010.3 |
| 20260507051933 | 41 | 351 | 0.0 | 0.0 | 0.00 | 0.00 | 0.00 | 99 | 1010.3 |
| 20260507051430 | 41 | 347 | 0.0 | 0.0 | 0.00 | 0.00 | 0.00 | 99 | 1010.3 |
| 20260507050927 | 41 | 316 | 1.0 | 1.0 | 0.00 | 0.00 | 0.00 | 99 | 1010.4 |
| 20260507050423 | 41 | 358 | 0.0 | 0.0 | 0.00 | 0.00 | 0.00 | 99 | 1010.2 |
| 20260507045921 | 41 | 9 | 0.0 | 0.0 | 0.00 | 0.00 | 0.00 | 99 | 1010.7 |
| 20260507045417 | 41 | 356 | 0.0 | 0.0 | 0.00 | 0.00 | 0.00 | 99 | 1010.4 |
| 20260507044914 | 41 | 354 | 0.0 | 0.0 | 0.00 | 0.00 | 0.00 | 99 | 1010.8 |
| 20260507044410 | 41 | 347 | 0.0 | 0.0 | 0.00 | 0.00 | 0.00 | 99 | 1010.7 |
| 20260507043907 | 42 | 341 | 1.0 | 1.0 | 0.00 | 0.00 | 0.00 | 99 | 1010.9 |
| 20260507043403 | 42 | 14 | 0.0 | 1.0 | 0.00 | 0.00 | 0.00 | 99 | 1010.8 |
| 20260507042859 | 42 | 302 | 1.0 | 1.0 | 0.00 | 0.00 | 0.00 | 99 | 1010.8 |
| 20260507042356 | 42 | 349 | 0.0 | 0.0 | 0.00 | 0.00 | 0.00 | 99 | 1010.7 |
| 20260507041852 | 42 | 0 | 0.0 | 0.0 | 0.00 | 0.00 | 0.00 | 99 | 1010.9 |
| 20260507041349 | 42 | 332 | 0.0 | 0.0 | 0.00 | 0.00 | 0.00 | 99 | 1010.7 |
| 20260507040846 | 42 | 3 | 0.0 | 0.0 | 0.00 | 0.00 | 0.00 | 99 | 1010.2 |
| 20260507040342 | 42 | 328 | 1.0 | 1.0 | 0.00 | 0.00 | 0.00 | 99 | 1010.4 |
| 20260507035838 | 42 | 320 | 1.0 | 1.0 | 0.00 | 0.65 | 0.65 | 99 | 1010.4 |
| 20260507035334 | 42 | 310 | 1.0 | 1.0 | 0.00 | 0.65 | 0.65 | 99 | 1010.7 |
| 20260507034832 | 42 | 337 | 1.0 | 1.0 | 0.00 | 0.65 | 0.65 | 99 | 1010.6 |
| 20260507034328 | 43 | 333 | 1.0 | 1.0 | 0.00 | 0.65 | 0.65 | 99 | 1010.3 |
| 20260507033826 | 42 | 332 | 1.0 | 2.0 | 0.00 | 0.65 | 0.65 | 99 | 1010.4 |
| 20260507033324 | 42 | 260 | 3.0 | 3.0 | 0.00 | 0.65 | 0.65 | 99 | 1010.0 |
| 20260507032815 | 43 | 303 | 3.0 | 3.0 | 0.00 | 0.65 | 0.65 | 99 | 1010.2 |
| 20260507032311 | 43 | 288 | 1.0 | 1.0 | 0.00 | 0.65 | 0.65 | 99 | 1010.4 |
| 20260507031808 | 43 | 339 | 1.0 | 1.0 | 0.00 | 0.65 | 0.65 | 99 | 1010.4 |
| 20260507031305 | 44 | 340 | 1.0 | 2.0 | 0.00 | 0.65 | 0.65 | 99 | 1010.4 |
| 20260507030801 | 44 | 325 | 1.0 | 1.0 | 0.00 | 0.65 | 0.65 | 99 | 1010.9 |
| 20260507030259 | 44 | 241 | 2.0 | 2.0 | 0.00 | 0.65 | 0.65 | 99 | 1010.7 |
| 20260507025756 | 44 | 332 | 1.0 | 1.0 | 0.00 | 0.65 | 0.65 | 99 | 1010.6 |
| 20260507025253 | 44 | 352 | 0.0 | 1.0 | 0.00 | 0.65 | 0.65 | 99 | 1010.3 |
| 20260507024751 | 44 | 320 | 1.0 | 2.0 | 0.00 | 0.65 | 0.65 | 99 | 1010.4 |
| 20260507024248 | 44 | 60 | 1.0 | 1.0 | 0.00 | 0.65 | 0.65 | 99 | 1010.6 |
| 20260507023743 | 44 | 10 | 0.0 | 0.0 | 0.00 | 0.65 | 0.65 | 99 | 1011.1 |
| 20260507023241 | 44 | 337 | 0.0 | 1.0 | 0.00 | 0.65 | 0.65 | 99 | 1010.8 |
| 20260507022738 | 44 | 351 | 0.0 | 0.0 | 0.00 | 0.65 | 0.65 | 99 | 1010.7 |